Time;durP1;ratioP1;P1;durP2;ratioP2;P2;SDS_P1;SDS_P2;PMS_P1;PMS_P2;Temp;Humidity;BMP_temperature;BMP_pressure;BME280_temperature;BME280_humidity;BME280_pressure;Samples;Min_cycle;Max_cycle;Signal;HPM_P1;HPM_P2
2023/08/28 00:02:21;;;;;;;5.60;2.93;;;15.90;83.80;;;;;;5008655;28;20246;-73
2023/08/28 00:04:47;;;;;;;5.30;3.13;;;15.90;84.00;;;;;;5012694;28;20922;-71
2023/08/28 00:07:13;;;;;;;7.83;2.50;;;15.90;83.80;;;;;;5013873;28;20471;-72
2023/08/28 00:09:39;;;;;;;6.47;3.00;;;15.90;83.80;;;;;;5009760;28;20215;-73
2023/08/28 00:12:05;;;;;;;7.97;2.80;;;15.80;83.80;;;;;;5013089;28;20576;-72
2023/08/28 00:14:31;;;;;;;2.90;2.67;;;15.80;84.00;;;;;;5016173;28;20440;-73
2023/08/28 00:16:57;;;;;;;7.67;3.20;;;15.80;84.10;;;;;;5020295;28;20185;-72
2023/08/28 00:19:23;;;;;;;5.20;2.70;;;15.80;84.00;;;;;;5012764;28;20599;-73
2023/08/28 00:21:48;;;;;;;3.97;2.27;;;15.80;83.70;;;;;;5013614;28;20454;-72
2023/08/28 00:24:14;;;;;;;4.33;2.60;;;15.90;83.60;;;;;;5011331;28;20191;-72
2023/08/28 00:26:40;;;;;;;6.20;2.70;;;15.90;83.30;;;;;;5005000;28;20623;-73
2023/08/28 00:29:05;;;;;;;7.37;2.57;;;15.90;83.40;;;;;;5009061;28;20186;-72
2023/08/28 00:31:31;;;;;;;6.50;2.70;;;15.90;83.60;;;;;;5002917;28;20211;-72
2023/08/28 00:33:56;;;;;;;4.90;2.50;;;16.00;83.60;;;;;;5008126;28;20185;-72
2023/08/28 00:36:22;;;;;;;6.33;3.07;;;16.10;83.60;;;;;;5012171;28;20612;-71
2023/08/28 00:38:47;;;;;;;3.33;2.13;;;16.00;83.30;;;;;;5009850;28;20276;-72
2023/08/28 00:41:13;;;;;;;3.50;2.50;;;16.10;82.70;;;;;;5013976;28;20197;-73
2023/08/28 00:43:39;;;;;;;2.97;2.20;;;16.10;81.90;;;;;;5011346;28;20198;-73
2023/08/28 00:46:05;;;;;;;2.70;2.20;;;16.10;81.80;;;;;;5014506;28;20186;-72
2023/08/28 00:48:31;;;;;;;4.37;2.37;;;16.00;81.80;;;;;;5013106;28;20589;-72
2023/08/28 00:50:57;;;;;;;4.60;2.47;;;16.10;81.80;;;;;;5005228;28;20453;-72
2023/08/28 00:53:23;;;;;;;6.57;2.30;;;16.10;81.70;;;;;;5017933;28;20423;-73
2023/08/28 00:55:49;;;;;;;2.70;2.00;;;16.10;81.20;;;;;;5008161;28;20449;-72
2023/08/28 00:58:15;;;;;;;7.43;2.43;;;16.10;81.50;;;;;;5014010;28;20689;-72
2023/08/28 01:00:41;;;;;;;5.03;2.30;;;16.10;81.50;;;;;;5007351;28;20501;-71
2023/08/28 01:03:07;;;;;;;4.37;2.23;;;16.20;81.40;;;;;;5014946;28;20499;-73
2023/08/28 01:05:37;;;;;;;2.57;1.90;;;16.20;81.20;;;;;;5009472;28;20458;-71
2023/08/28 01:08:29;;;;;;;2.80;2.13;;;16.20;81.20;;;;;;5011259;28;20729;-73
2023/08/28 01:11:03;;;;;;;4.10;2.00;;;16.30;81.10;;;;;;5011008;28;20548;-73
2023/08/28 01:13:36;;;;;;;4.07;1.93;;;16.20;80.90;;;;;;5011070;28;20438;-73
2023/08/28 01:16:03;;;;;;;5.07;2.00;;;16.20;80.90;;;;;;5009243;28;20784;-73
2023/08/28 01:18:30;;;;;;;6.17;2.60;;;16.20;81.10;;;;;;4999911;28;20468;-72
2023/08/28 01:20:57;;;;;;;4.57;2.30;;;16.20;81.10;;;;;;5007001;28;20539;-73
2023/08/28 01:23:51;;;;;;;4.30;2.20;;;16.20;81.10;;;;;;5011017;28;20413;-73
2023/08/28 01:26:17;;;;;;;5.73;2.47;;;16.10;81.20;;;;;;5019919;28;20436;-71
2023/08/28 01:28:43;;;;;;;3.83;2.23;;;16.10;81.20;;;;;;5012994;28;20448;-72
2023/08/28 01:31:09;;;;;;;3.27;2.07;;;16.00;81.20;;;;;;5016664;28;20483;-72
2023/08/28 01:33:35;;;;;;;3.90;2.10;;;16.00;81.20;;;;;;5013852;28;20919;-73
2023/08/28 01:36:33;;;;;;;4.30;2.00;;;16.00;81.50;;;;;;5024245;28;20185;-73
2023/08/28 01:39:06;;;;;;;4.60;2.10;;;16.00;81.50;;;;;;5014217;28;20458;-72
2023/08/28 01:41:33;;;;;;;4.93;1.90;;;16.00;81.50;;;;;;5010420;28;20886;-71
2023/08/28 01:44:01;;;;;;;4.70;1.70;;;16.00;81.50;;;;;;5009962;28;20842;-70
2023/08/28 01:46:31;;;;;;;3.77;2.60;;;16.00;81.50;;;;;;5016165;28;20479;-71
2023/08/28 01:48:57;;;;;;;4.10;2.30;;;16.00;81.70;;;;;;5015668;28;20420;-72
2023/08/28 01:51:23;;;;;;;5.17;2.60;;;16.00;81.70;;;;;;5007463;28;20485;-71
2023/08/28 01:53:49;;;;;;;2.37;1.83;;;15.90;81.50;;;;;;5011723;28;20665;-70
2023/08/28 01:56:17;;;;;;;3.63;2.23;;;15.90;81.50;;;;;;5008375;28;20494;-72
2023/08/28 01:58:56;;;;;;;5.30;2.00;;;15.90;81.80;;;;;;5014348;28;20890;-71
2023/08/28 02:01:22;;;;;;;2.93;1.97;;;15.90;81.50;;;;;;5007841;28;20457;-72
2023/08/28 02:03:48;;;;;;;2.93;1.97;;;15.90;81.10;;;;;;5010057;28;20418;-73
2023/08/28 02:06:14;;;;;;;2.60;2.10;;;15.90;81.20;;;;;;5003483;28;20783;-73
2023/08/28 02:08:42;;;;;;;4.10;2.40;;;15.90;81.40;;;;;;5018134;28;20185;-71
2023/08/28 02:11:08;;;;;;;5.20;2.30;;;15.90;81.70;;;;;;5009075;28;20763;-71
2023/08/28 02:13:33;;;;;;;2.20;1.80;;;16.00;81.50;;;;;;5010114;28;20416;-72
2023/08/28 02:16:00;;;;;;;6.33;2.13;;;16.00;81.70;;;;;;5011246;28;20657;-70
2023/08/28 02:18:26;;;;;;;4.70;2.17;;;16.00;81.50;;;;;;5014210;28;20279;-72
2023/08/28 02:20:52;;;;;;;4.00;2.10;;;15.90;81.70;;;;;;5008464;28;20537;-72
2023/08/28 02:23:17;;;;;;;3.80;2.23;;;15.90;81.80;;;;;;5014082;28;20919;-71
2023/08/28 02:25:45;;;;;;;2.23;1.87;;;15.90;81.80;;;;;;5019712;28;20631;-72
2023/08/28 02:28:11;;;;;;;4.73;2.00;;;15.90;81.90;;;;;;5018870;28;20232;-72
2023/08/28 02:30:37;;;;;;;4.37;1.87;;;15.90;81.90;;;;;;5012118;28;20777;-71
2023/08/28 02:33:02;;;;;;;4.73;2.50;;;15.80;82.10;;;;;;5021544;28;20521;-72
2023/08/28 02:35:28;;;;;;;4.00;2.23;;;15.80;82.20;;;;;;5008703;28;20179;-73
2023/08/28 02:37:54;;;;;;;3.63;2.13;;;15.70;82.40;;;;;;5024047;28;20673;-72
2023/08/28 02:40:19;;;;;;;5.00;2.30;;;15.70;82.50;;;;;;5013458;28;20238;-71
2023/08/28 02:42:45;;;;;;;5.90;2.47;;;15.70;82.50;;;;;;5013473;28;20200;-73
2023/08/28 02:45:10;;;;;;;2.97;1.90;;;15.70;82.50;;;;;;5015702;28;20544;-74
2023/08/28 02:47:36;;;;;;;3.93;2.10;;;15.70;82.80;;;;;;5016896;28;20293;-71
2023/08/28 02:50:02;;;;;;;5.30;2.60;;;15.60;82.80;;;;;;5009916;28;20201;-71
2023/08/28 02:52:29;;;;;;;5.80;2.67;;;15.70;83.10;;;;;;5017482;28;20194;-72
2023/08/28 02:54:54;;;;;;;3.93;2.43;;;15.60;83.10;;;;;;5012471;28;21070;-72
2023/08/28 02:57:20;;;;;;;4.93;2.37;;;15.60;83.40;;;;;;5011704;28;20186;-71
2023/08/28 02:59:45;;;;;;;6.07;2.30;;;15.60;83.60;;;;;;5015089;28;20193;-71
2023/08/28 03:02:11;;;;;;;4.13;2.43;;;15.60;83.60;;;;;;5013012;28;20210;-74
2023/08/28 03:04:36;;;;;;;3.27;2.13;;;15.60;83.40;;;;;;5011666;28;20597;-74
2023/08/28 03:07:02;;;;;;;3.77;2.13;;;15.60;83.40;;;;;;5016545;28;20301;-73
2023/08/28 03:09:29;;;;;;;3.43;2.50;;;15.60;83.40;;;;;;5014233;28;20193;-72
2023/08/28 03:11:55;;;;;;;4.20;2.27;;;15.60;83.60;;;;;;5016588;28;20209;-71
2023/08/28 03:14:21;;;;;;;6.97;2.47;;;15.50;83.70;;;;;;5010759;28;20427;-73
2023/08/28 03:16:46;;;;;;;3.00;2.10;;;15.60;84.10;;;;;;5015001;28;20562;-72
2023/08/28 03:19:12;;;;;;;5.03;2.60;;;15.60;83.70;;;;;;5010837;28;20174;-74
2023/08/28 03:21:39;;;;;;;7.83;2.93;;;15.60;83.60;;;;;;5011112;28;20215;-73
2023/08/28 03:24:06;;;;;;;6.07;2.80;;;15.60;83.70;;;;;;5010144;28;20571;-73
2023/08/28 03:26:33;;;;;;;6.43;2.73;;;15.50;83.70;;;;;;5018821;28;20417;-75
2023/08/28 03:28:59;;;;;;;3.53;2.40;;;15.50;83.70;;;;;;5017334;28;20871;-75
2023/08/28 03:31:26;;;;;;;4.50;3.27;;;15.50;83.60;;;;;;5009157;28;21204;-73
2023/08/28 03:33:51;;;;;;;3.30;2.63;;;15.50;83.60;;;;;;5008250;28;20909;-72
2023/08/28 03:36:17;;;;;;;3.40;2.20;;;15.50;83.80;;;;;;5016504;28;20490;-73
2023/08/28 03:38:42;;;;;;;4.97;2.43;;;15.50;83.60;;;;;;5014331;28;20735;-72
2023/08/28 03:41:09;;;;;;;4.00;2.33;;;15.50;83.40;;;;;;5006623;28;20279;-73
2023/08/28 03:43:34;;;;;;;5.97;2.50;;;15.50;83.60;;;;;;5017826;28;20185;-73
2023/08/28 03:46:00;;;;;;;4.30;2.60;;;15.50;83.30;;;;;;5019861;28;20410;-73
2023/08/28 03:48:26;;;;;;;9.77;2.70;;;15.50;83.30;;;;;;5015325;28;20269;-73
2023/08/28 03:50:51;;;;;;;3.90;2.40;;;15.50;83.70;;;;;;5008433;28;20218;-73
2023/08/28 03:53:17;;;;;;;6.03;2.87;;;15.60;83.80;;;;;;5011268;28;20244;-73
2023/08/28 03:55:42;;;;;;;4.57;2.63;;;15.70;83.80;;;;;;5016138;28;20185;-71
2023/08/28 03:58:08;;;;;;;3.63;2.37;;;15.70;83.70;;;;;;5011804;28;20285;-73
2023/08/28 04:00:34;;;;;;;3.60;2.73;;;15.70;83.30;;;;;;5009091;28;20317;-72
2023/08/28 04:02:59;;;;;;;6.70;2.93;;;15.60;82.80;;;;;;5011620;28;20538;-73
2023/08/28 04:05:26;;;;;;;8.40;2.60;;;15.60;83.10;;;;;;5010331;28;20199;-72
2023/08/28 04:07:52;;;;;;;8.10;2.37;;;15.60;82.50;;;;;;5011656;28;20230;-72
2023/08/28 04:10:19;;;;;;;6.03;3.03;;;15.60;82.40;;;;;;5006480;28;20469;-72
2023/08/28 04:12:45;;;;;;;4.17;2.57;;;15.70;81.90;;;;;;5007129;28;20432;-72
2023/08/28 04:15:10;;;;;;;5.20;3.00;;;15.60;81.50;;;;;;5015958;28;20940;-72
2023/08/28 04:17:37;;;;;;;5.07;2.97;;;15.50;81.50;;;;;;5003690;28;20505;-73
2023/08/28 04:20:12;;;;;;;5.40;2.53;;;15.50;81.70;;;;;;5008321;28;20191;-71
2023/08/28 04:22:41;;;;;;;5.40;2.97;;;15.40;81.80;;;;;;5013196;28;20439;-72
2023/08/28 04:25:07;;;;;;;3.70;2.80;;;15.50;81.80;;;;;;5014636;28;20429;-71
2023/08/28 04:27:32;;;;;;;4.13;2.70;;;15.50;81.90;;;;;;5021137;28;20483;-72
2023/08/28 04:29:58;;;;;;;5.63;3.03;;;15.40;82.10;;;;;;5023639;28;20425;-70
2023/08/28 04:32:24;;;;;;;5.30;2.80;;;15.30;82.20;;;;;;5010092;28;20649;-71
2023/08/28 04:34:49;;;;;;;4.90;2.70;;;15.30;82.40;;;;;;5010001;28;20214;-71
2023/08/28 04:37:15;;;;;;;3.43;2.70;;;15.30;82.50;;;;;;5010460;28;20264;-72
2023/08/28 04:39:40;;;;;;;7.43;3.73;;;15.30;82.50;;;;;;5006766;28;20270;-71
2023/08/28 04:42:06;;;;;;;8.27;3.00;;;15.20;82.80;;;;;;5007774;28;20716;-73
2023/08/28 04:44:32;;;;;;;6.57;2.97;;;15.30;83.00;;;;;;5013045;28;20183;-72
2023/08/28 04:46:59;;;;;;;6.23;3.20;;;15.20;82.80;;;;;;5009796;28;20478;-72
2023/08/28 04:49:24;;;;;;;5.60;3.40;;;15.20;83.00;;;;;;5010384;28;20657;-72
2023/08/28 04:51:50;;;;;;;8.60;3.20;;;15.20;83.00;;;;;;5010832;28;20464;-71
2023/08/28 04:54:16;;;;;;;8.13;3.27;;;15.20;83.10;;;;;;5012209;28;20261;-71
2023/08/28 04:56:41;;;;;;;5.77;3.33;;;15.20;83.30;;;;;;5016139;28;20178;-72
2023/08/28 04:59:07;;;;;;;6.87;2.90;;;15.30;83.30;;;;;;5018928;28;20192;-73
2023/08/28 05:01:32;;;;;;;4.80;3.00;;;15.30;83.10;;;;;;5007859;28;20201;-73
2023/08/28 05:03:59;;;;;;;5.20;2.97;;;15.30;83.30;;;;;;5007739;28;20186;-73
2023/08/28 05:06:24;;;;;;;8.53;3.63;;;15.30;83.30;;;;;;5014154;28;20211;-73
2023/08/28 05:08:50;;;;;;;5.20;3.13;;;15.40;83.40;;;;;;5009836;28;20423;-73
2023/08/28 05:11:16;;;;;;;6.30;3.40;;;15.50;83.10;;;;;;5006684;28;20686;-71
2023/08/28 05:13:42;;;;;;;8.20;3.67;;;15.50;83.10;;;;;;5010859;28;20263;-73
2023/08/28 05:16:07;;;;;;;4.23;3.20;;;15.50;83.30;;;;;;5010829;28;20931;-73
2023/08/28 05:18:33;;;;;;;4.57;3.50;;;15.60;83.30;;;;;;5007981;28;20330;-72
2023/08/28 05:20:58;;;;;;;4.97;3.70;;;15.70;83.10;;;;;;5011021;28;20209;-71
2023/08/28 05:23:27;;;;;;;7.53;4.00;;;15.70;82.80;;;;;;5010339;28;20181;-72
2023/08/28 05:25:53;;;;;;;7.60;4.03;;;15.60;82.80;;;;;;5014243;28;20187;-74
2023/08/28 05:28:19;;;;;;;7.67;4.13;;;15.50;83.00;;;;;;5009148;28;20912;-72
2023/08/28 05:30:45;;;;;;;6.83;4.07;;;15.50;83.30;;;;;;5011204;28;20468;-72
2023/08/28 05:33:11;;;;;;;9.03;3.20;;;15.40;83.40;;;;;;5009713;28;20201;-74
2023/08/28 05:35:38;;;;;;;9.40;4.47;;;15.50;83.70;;;;;;5015793;28;20425;-73
2023/08/28 05:38:04;;;;;;;5.93;4.07;;;15.60;83.40;;;;;;5015117;28;20205;-72
2023/08/28 05:40:30;;;;;;;8.33;4.23;;;15.60;83.30;;;;;;5013303;28;20483;-73
2023/08/28 05:42:56;;;;;;;7.17;4.77;;;15.50;83.30;;;;;;5007932;28;20428;-72
2023/08/28 05:45:22;;;;;;;7.80;4.80;;;15.40;83.70;;;;;;5016399;28;20665;-72
2023/08/28 05:47:47;;;;;;;8.40;5.30;;;15.30;84.10;;;;;;5009678;28;20477;-72
2023/08/28 05:50:13;;;;;;;8.60;5.60;;;15.30;84.30;;;;;;5017859;28;20205;-77
2023/08/28 05:52:38;;;;;;;9.53;5.30;;;15.30;84.60;;;;;;5020004;28;20185;-74
2023/08/28 05:55:05;;;;;;;6.20;4.97;;;15.30;84.90;;;;;;5032830;28;20905;-76
2023/08/28 05:57:30;;;;;;;8.07;5.20;;;15.30;85.30;;;;;;5005976;28;20209;-74
2023/08/28 05:59:56;;;;;;;7.63;4.53;;;15.40;85.20;;;;;;5013027;28;20720;-75
2023/08/28 06:02:22;;;;;;;15.50;5.03;;;15.50;85.20;;;;;;5001810;28;20742;-75
2023/08/28 06:04:48;;;;;;;9.67;6.00;;;15.50;85.00;;;;;;5027526;28;20447;-75
2023/08/28 06:07:14;;;;;;;10.77;5.37;;;15.60;84.60;;;;;;5015997;28;20260;-75
2023/08/28 06:09:41;;;;;;;15.40;5.70;;;15.60;84.60;;;;;;5009141;28;20420;-75
2023/08/28 06:12:07;;;;;;;8.90;5.23;;;15.60;84.10;;;;;;5013958;28;20207;-75
2023/08/28 06:14:33;;;;;;;12.67;6.53;;;15.60;84.30;;;;;;5023260;28;20591;-74
2023/08/28 06:16:59;;;;;;;11.23;5.47;;;15.60;84.10;;;;;;5029111;28;20242;-75
2023/08/28 06:19:25;;;;;;;11.10;5.73;;;15.60;84.30;;;;;;5028246;28;20426;-75
2023/08/28 06:21:50;;;;;;;9.63;6.77;;;15.50;84.30;;;;;;5012692;28;20197;-75
2023/08/28 06:24:16;;;;;;;9.47;5.50;;;15.30;84.70;;;;;;5016818;28;20720;-74
2023/08/28 06:26:42;;;;;;;8.60;5.60;;;15.40;85.00;;;;;;5019905;28;20238;-76
2023/08/28 06:29:08;;;;;;;15.17;6.60;;;15.50;85.00;;;;;;5022617;28;20245;-76
2023/08/28 06:31:33;;;;;;;11.67;5.70;;;15.40;84.90;;;;;;5010385;28;20214;-76
2023/08/28 06:33:59;;;;;;;9.80;5.43;;;15.40;85.20;;;;;;5016070;28;20422;-74
2023/08/28 06:36:24;;;;;;;9.67;6.40;;;15.50;85.30;;;;;;5019963;28;20190;-76
2023/08/28 06:38:52;;;;;;;10.80;6.33;;;15.50;84.90;;;;;;5021426;28;20209;-76
2023/08/28 06:41:18;;;;;;;11.13;6.60;;;15.40;85.00;;;;;;5011080;28;20571;-75
2023/08/28 06:43:45;;;;;;;11.80;6.83;;;15.50;85.20;;;;;;5018886;28;20447;-75
2023/08/28 06:46:10;;;;;;;10.63;6.20;;;15.40;85.00;;;;;;5016919;28;20430;-75
2023/08/28 06:48:36;;;;;;;11.40;6.60;;;15.40;85.30;;;;;;5012290;28;20533;-75
2023/08/28 06:51:01;;;;;;;13.80;7.43;;;15.30;85.50;;;;;;5014174;28;20217;-75
2023/08/28 06:53:27;;;;;;;11.20;7.43;;;15.30;85.60;;;;;;5013611;28;20205;-75
2023/08/28 06:55:53;;;;;;;11.80;7.13;;;15.40;85.60;;;;;;5013350;28;20427;-72
2023/08/28 06:58:19;;;;;;;10.07;6.43;;;15.40;85.50;;;;;;5016397;28;20196;-72
2023/08/28 07:00:44;;;;;;;10.60;7.10;;;15.50;85.50;;;;;;5012723;28;20208;-74
2023/08/28 07:03:10;;;;;;;11.83;6.97;;;15.50;85.30;;;;;;5015739;28;20661;-71
2023/08/28 07:05:36;;;;;;;13.77;6.93;;;15.40;85.00;;;;;;5016579;28;20189;-73
2023/08/28 07:08:02;;;;;;;13.50;6.60;;;15.40;85.30;;;;;;5017034;28;20700;-72
2023/08/28 07:10:27;;;;;;;14.40;8.03;;;15.30;85.30;;;;;;5028403;28;20476;-72
2023/08/28 07:12:53;;;;;;;15.67;7.53;;;15.30;85.30;;;;;;5013999;28;20429;-73
2023/08/28 07:15:18;;;;;;;9.87;6.20;;;15.40;85.50;;;;;;5013469;28;20206;-74
2023/08/28 07:17:44;;;;;;;11.77;6.13;;;15.50;85.30;;;;;;5010839;28;20183;-73
2023/08/28 07:20:10;;;;;;;13.07;6.20;;;15.50;84.60;;;;;;5014873;28;20560;-72
2023/08/28 07:22:36;;;;;;;9.43;6.30;;;15.60;84.30;;;;;;5012604;28;20637;-72
2023/08/28 07:25:02;;;;;;;11.77;7.10;;;15.50;84.00;;;;;;5008739;28;20608;-75
2023/08/28 07:27:27;;;;;;;10.17;6.57;;;15.50;83.70;;;;;;5014154;28;20508;-74
2023/08/28 07:29:53;;;;;;;10.33;7.07;;;15.40;83.80;;;;;;5014005;28;20456;-72
2023/08/28 07:32:18;;;;;;;11.10;6.67;;;15.40;83.80;;;;;;5010673;28;20221;-73
2023/08/28 07:34:44;;;;;;;14.20;6.83;;;15.40;84.10;;;;;;5012011;28;20325;-73
2023/08/28 07:37:10;;;;;;;8.33;6.20;;;15.50;84.40;;;;;;5019622;28;20197;-73
2023/08/28 07:39:37;;;;;;;11.37;5.97;;;15.70;84.40;;;;;;5008842;28;20269;-72
2023/08/28 07:42:03;;;;;;;11.87;6.23;;;15.70;83.60;;;;;;5009746;28;20465;-72
2023/08/28 07:44:28;;;;;;;11.47;6.67;;;15.50;83.40;;;;;;5007101;28;20185;-74
2023/08/28 07:46:54;;;;;;;9.10;5.70;;;15.50;83.30;;;;;;5012856;28;20543;-73
2023/08/28 07:49:19;;;;;;;9.97;5.93;;;15.50;82.80;;;;;;5013858;28;20270;-73
2023/08/28 07:51:45;;;;;;;13.90;6.07;;;15.50;82.70;;;;;;5023380;28;20661;-73
2023/08/28 07:54:11;;;;;;;8.43;5.90;;;15.50;82.70;;;;;;5018362;28;20591;-73
2023/08/28 07:56:37;;;;;;;8.23;4.73;;;15.70;82.80;;;;;;5024546;28;20237;-73
2023/08/28 07:59:04;;;;;;;16.33;4.40;;;15.90;82.40;;;;;;5017021;28;20413;-73
2023/08/28 08:01:30;;;;;;;9.33;5.00;;;15.90;80.80;;;;;;5022140;28;20213;-72
2023/08/28 08:03:57;;;;;;;8.53;5.17;;;15.90;80.50;;;;;;5018036;28;20521;-72
2023/08/28 08:06:23;;;;;;;7.90;5.10;;;15.90;80.60;;;;;;5027072;28;20425;-75
2023/08/28 08:08:49;;;;;;;10.60;5.90;;;15.70;80.60;;;;;;5007417;28;20471;-73
2023/08/28 08:11:15;;;;;;;7.20;4.97;;;15.70;80.50;;;;;;5014239;28;20458;-72
2023/08/28 08:13:41;;;;;;;9.60;4.50;;;15.70;80.60;;;;;;5018038;28;20188;-73
2023/08/28 08:16:07;;;;;;;6.40;4.73;;;15.80;79.90;;;;;;5024492;28;20466;-74
2023/08/28 08:18:33;;;;;;;6.97;4.67;;;15.90;79.30;;;;;;5012345;28;20181;-73
2023/08/28 08:20:59;;;;;;;7.23;4.60;;;15.80;78.60;;;;;;5018785;28;20834;-74
2023/08/28 08:23:26;;;;;;;6.27;3.97;;;15.90;78.40;;;;;;5015715;28;20422;-73
2023/08/28 08:25:54;;;;;;;7.40;4.17;;;16.00;78.70;;;;;;5015818;28;20917;-73
2023/08/28 08:28:20;;;;;;;4.03;3.50;;;16.20;77.40;;;;;;5016325;28;20471;-73
2023/08/28 08:30:46;;;;;;;9.20;4.20;;;16.00;75.90;;;;;;5015204;28;20508;-72
2023/08/28 08:33:12;;;;;;;7.50;4.07;;;16.10;76.50;;;;;;5012131;28;20424;-74
2023/08/28 08:35:38;;;;;;;7.03;4.00;;;16.30;76.70;;;;;;5012074;28;20432;-73
2023/08/28 08:38:04;;;;;;;6.10;3.73;;;16.50;76.70;;;;;;5014960;28;20335;-73
2023/08/28 08:40:32;;;;;;;7.30;4.17;;;16.50;74.90;;;;;;5016566;28;21289;-73
2023/08/28 08:42:59;;;;;;;4.90;3.60;;;16.30;73.70;;;;;;5014919;28;20424;-73
2023/08/28 08:45:29;;;;;;;5.10;3.30;;;16.20;75.40;;;;;;5019648;28;20522;-74
2023/08/28 08:47:57;;;;;;;6.37;3.70;;;16.30;75.40;;;;;;5014170;28;20990;-73
2023/08/28 08:50:24;;;;;;;6.47;3.97;;;16.40;75.10;;;;;;5013780;28;20475;-73
2023/08/28 08:52:51;;;;;;;5.60;3.57;;;16.60;74.90;;;;;;5016955;28;20871;-73
2023/08/28 08:55:50;;;;;;;9.00;3.60;;;16.60;74.30;;;;;;5010600;28;20433;-73
2023/08/28 08:58:17;;;;;;;6.30;3.77;;;16.60;74.80;;;;;;5017561;28;20945;-73
2023/08/28 09:00:43;;;;;;;5.30;3.50;;;16.30;75.40;;;;;;5017529;28;20468;-73
2023/08/28 09:03:09;;;;;;;4.97;3.13;;;16.10;75.20;;;;;;5011548;28;20517;-73
2023/08/28 09:05:36;;;;;;;7.10;3.47;;;16.10;74.80;;;;;;5009819;28;20432;-74
2023/08/28 09:08:05;;;;;;;6.70;3.00;;;16.20;74.80;;;;;;5015789;28;20469;-74
2023/08/28 09:10:31;;;;;;;7.93;3.30;;;16.30;73.90;;;;;;5011916;28;20466;-73
2023/08/28 09:12:56;;;;;;;6.80;3.80;;;16.30;74.90;;;;;;5011401;28;20439;-74
2023/08/28 09:15:26;;;;;;;5.83;3.30;;;16.30;74.60;;;;;;5008647;28;20423;-74
2023/08/28 09:17:52;;;;;;;4.60;3.77;;;16.30;74.80;;;;;;5010114;28;20658;-72
2023/08/28 09:20:21;;;;;;;7.03;3.83;;;16.20;74.60;;;;;;5013155;28;20464;-73
2023/08/28 09:22:49;;;;;;;7.53;3.67;;;16.20;74.60;;;;;;5013060;28;20626;-72
2023/08/28 09:25:19;;;;;;;5.23;3.53;;;16.20;75.10;;;;;;5012926;28;20568;-73
2023/08/28 09:27:46;;;;;;;4.87;3.20;;;16.30;74.80;;;;;;5014837;28;20511;-72
2023/08/28 09:30:27;;;;;;;3.70;2.87;;;16.40;74.60;;;;;;5015057;28;20511;-73
2023/08/28 09:32:53;;;;;;;4.77;3.30;;;16.60;74.20;;;;;;5011354;28;20420;-73
2023/08/28 09:35:22;;;;;;;7.97;4.60;;;16.70;73.20;;;;;;5018313;28;21818;-75
2023/08/28 09:37:58;;;;;;;5.43;3.13;;;16.80;72.70;;;;;;5014491;28;20192;-74
2023/08/28 09:40:32;;;;;;;5.93;3.40;;;16.80;72.30;;;;;;5021412;28;20476;-73
2023/08/28 09:42:58;;;;;;;8.00;2.87;;;16.80;72.60;;;;;;5021712;28;20478;-72
2023/08/28 09:45:34;;;;;;;4.10;2.93;;;16.90;72.60;;;;;;5024137;28;20944;-73
2023/08/28 09:48:04;;;;;;;6.50;3.10;;;17.20;71.80;;;;;;5030625;28;20477;-73
2023/08/28 09:50:31;;;;;;;5.23;3.10;;;17.20;71.40;;;;;;5016137;28;20496;-74
2023/08/28 09:53:07;;;;;;;4.90;3.20;;;17.30;71.60;;;;;;5022043;28;20424;-73
2023/08/28 09:55:49;;;;;;;3.47;3.10;;;17.00;72.00;;;;;;5020024;28;20786;-73
2023/08/28 09:58:15;;;;;;;7.07;3.70;;;16.90;72.10;;;;;;5020441;28;20927;-74
2023/08/28 10:00:41;;;;;;;5.00;3.33;;;16.70;72.90;;;;;;5020315;28;20478;-74
2023/08/28 10:03:09;;;;;;;6.00;2.90;;;17.00;72.30;;;;;;5020632;28;20256;-74
2023/08/28 10:05:39;;;;;;;6.50;3.43;;;17.20;71.30;;;;;;5023007;28;20432;-72
2023/08/28 10:08:15;;;;;;;4.73;3.00;;;16.80;72.10;;;;;;5024805;28;20471;-73
2023/08/28 10:10:46;;;;;;;4.83;3.03;;;16.80;72.60;;;;;;5012961;28;20449;-75
2023/08/28 10:13:17;;;;;;;3.97;2.80;;;16.80;71.80;;;;;;5019604;28;20917;-73
2023/08/28 10:16:17;;;;;;;6.60;3.13;;;16.70;71.70;;;;;;5013844;28;20424;-74
2023/08/28 10:18:59;;;;;;;4.07;3.10;;;16.60;71.70;;;;;;5006665;28;20539;-74
2023/08/28 10:21:26;;;;;;;5.33;2.40;;;16.50;71.70;;;;;;5014480;28;20460;-73
2023/08/28 10:23:53;;;;;;;4.80;2.50;;;16.70;71.30;;;;;;5016910;28;20440;-73
2023/08/28 10:26:20;;;;;;;3.90;2.43;;;16.90;71.00;;;;;;5018122;28;20425;-73
2023/08/28 10:28:46;;;;;;;2.83;2.30;;;16.90;70.20;;;;;;5011043;28;20464;-73
2023/08/28 10:31:13;;;;;;;5.60;2.80;;;17.10;70.10;;;;;;5007470;28;20460;-74
2023/08/28 10:33:40;;;;;;;4.40;2.70;;;17.20;69.70;;;;;;5017693;28;20529;-73
2023/08/28 10:36:10;;;;;;;3.33;2.63;;;17.40;69.70;;;;;;5018481;28;20466;-71
2023/08/28 10:38:37;;;;;;;4.50;2.53;;;17.60;69.20;;;;;;5014116;28;20460;-73
2023/08/28 10:41:04;;;;;;;3.23;2.70;;;17.70;69.40;;;;;;5014039;28;20475;-74
2023/08/28 10:43:30;;;;;;;3.20;2.43;;;17.50;68.80;;;;;;5017859;28;20421;-74
2023/08/28 10:45:59;;;;;;;4.07;3.07;;;17.50;69.50;;;;;;5010614;28;20429;-72
2023/08/28 10:48:27;;;;;;;16.47;2.57;;;17.40;69.40;;;;;;5015932;28;20464;-73
2023/08/28 10:51:00;;;;;;;8.47;2.43;;;17.10;69.90;;;;;;5013912;28;20457;-74
2023/08/28 10:53:28;;;;;;;5.83;2.53;;;17.30;69.80;;;;;;5021432;28;20500;-73
2023/08/28 10:56:00;;;;;;;4.43;2.40;;;17.40;68.90;;;;;;5007760;28;20896;-72
2023/08/28 10:58:30;;;;;;;3.87;2.30;;;17.50;68.50;;;;;;5011182;28;20936;-74
2023/08/28 11:01:18;;;;;;;4.80;2.43;;;17.80;68.30;;;;;;5004774;28;20782;-74
2023/08/28 11:03:57;;;;;;;3.50;1.90;;;17.90;68.20;;;;;;5012190;28;20429;-73
2023/08/28 11:06:44;;;;;;;4.53;2.47;;;18.30;67.30;;;;;;5014064;28;20435;-75
2023/08/28 11:09:30;;;;;;;2.33;2.10;;;18.20;66.60;;;;;;5015731;28;21001;-74
2023/08/28 11:12:02;;;;;;;2.70;2.20;;;18.10;65.70;;;;;;5013229;28;21030;-74
2023/08/28 11:14:32;;;;;;;3.07;2.20;;;17.80;66.40;;;;;;5016072;28;20416;-72
2023/08/28 11:17:10;;;;;;;5.57;2.30;;;17.50;67.00;;;;;;5012580;28;20488;-74
2023/08/28 11:19:54;;;;;;;4.80;2.20;;;17.30;68.30;;;;;;5018889;28;20413;-74
2023/08/28 11:22:35;;;;;;;2.63;2.10;;;17.50;67.70;;;;;;5012355;28;20437;-72
2023/08/28 11:25:04;;;;;;;2.97;2.27;;;17.50;67.60;;;;;;5015677;28;20441;-73
2023/08/28 11:27:31;;;;;;;6.50;2.60;;;17.70;67.70;;;;;;5023697;28;20884;-74
2023/08/28 11:29:56;;;;;;;2.83;2.20;;;17.60;67.90;;;;;;5018490;28;20419;-73
2023/08/28 11:32:22;;;;;;;4.13;2.50;;;17.70;67.90;;;;;;5012947;28;20445;-73
2023/08/28 11:34:48;;;;;;;4.20;2.80;;;17.60;68.00;;;;;;5017999;28;20185;-74
2023/08/28 11:37:29;;;;;;;3.20;2.50;;;17.80;67.70;;;;;;5021018;28;20192;-74
2023/08/28 11:39:55;;;;;;;5.43;2.93;;;17.80;67.90;;;;;;5024055;28;20451;-73
2023/08/28 11:42:20;;;;;;;3.60;2.43;;;17.70;68.00;;;;;;5019033;28;20447;-72
2023/08/28 11:44:48;;;;;;;3.00;2.33;;;17.70;68.30;;;;;;5027613;28;20270;-73
2023/08/28 11:47:14;;;;;;;2.63;2.20;;;18.00;67.60;;;;;;5024978;28;20253;-73
2023/08/28 11:49:39;;;;;;;4.00;2.20;;;18.10;67.30;;;;;;5017514;28;20433;-73
2023/08/28 11:52:06;;;;;;;3.70;2.60;;;18.20;66.90;;;;;;5014587;28;20827;-73
2023/08/28 11:54:34;;;;;;;5.20;2.77;;;17.90;67.60;;;;;;5024377;28;20357;-72
2023/08/28 11:57:00;;;;;;;3.33;2.40;;;18.00;67.50;;;;;;5027469;28;20435;-73
2023/08/28 11:59:27;;;;;;;3.20;2.43;;;17.80;67.20;;;;;;5021846;28;20444;-73
2023/08/28 12:01:53;;;;;;;7.30;2.83;;;17.70;67.50;;;;;;5007654;28;20713;-72
2023/08/28 12:04:22;;;;;;;3.30;2.07;;;17.50;68.20;;;;;;5017035;28;20433;-73
2023/08/28 12:06:48;;;;;;;6.00;2.83;;;17.40;68.30;;;;;;5018524;28;20665;-73
2023/08/28 12:09:15;;;;;;;4.90;2.87;;;17.40;68.60;;;;;;5024806;28;21001;-73
2023/08/28 12:11:41;;;;;;;2.47;2.10;;;17.40;68.80;;;;;;5016446;28;20468;-73
2023/08/28 12:14:26;;;;;;;6.87;2.60;;;17.40;68.50;;;;;;5021615;28;20454;-73
2023/08/28 12:17:01;;;;;;;3.87;2.50;;;17.30;68.60;;;;;;5012263;28;20443;-74
2023/08/28 12:19:27;;;;;;;4.50;2.40;;;17.30;68.50;;;;;;5023136;28;20834;-73
2023/08/28 12:22:06;;;;;;;11.33;2.60;;;17.40;68.20;;;;;;5011021;28;21048;-74
2023/08/28 12:24:32;;;;;;;3.17;2.40;;;17.30;68.20;;;;;;5013697;28;20217;-74
2023/08/28 12:26:58;;;;;;;7.60;2.70;;;17.30;68.30;;;;;;5018379;28;20469;-74
2023/08/28 12:29:25;;;;;;;4.73;2.70;;;17.40;68.50;;;;;;5026508;28;20423;-73
2023/08/28 12:31:51;;;;;;;3.77;2.30;;;17.40;68.20;;;;;;5013388;28;20467;-74
2023/08/28 12:34:18;;;;;;;4.17;2.87;;;17.10;68.00;;;;;;5025841;28;20479;-74
2023/08/28 12:36:45;;;;;;;6.73;2.50;;;17.10;68.80;;;;;;5024545;28;20445;-72
2023/08/28 12:39:15;;;;;;;2.80;2.40;;;17.10;68.30;;;;;;5020499;28;20450;-73
2023/08/28 12:41:52;;;;;;;4.23;2.40;;;17.10;68.50;;;;;;5011312;28;20461;-74
2023/08/28 12:44:19;;;;;;;4.13;2.60;;;17.20;68.20;;;;;;5015219;28;21275;-74
2023/08/28 12:46:45;;;;;;;3.73;2.13;;;17.20;68.20;;;;;;5021600;28;20419;-73
2023/08/28 12:49:12;;;;;;;5.67;2.40;;;17.30;68.50;;;;;;5015964;28;20527;-73